San Jacinto, CA (92583)

11:09 AM PST on January 26, 2015 (GMT -0800)
Nantucket Street - San Jacinto, CA | Change Station
CLOSE
Current Station
Personal Weather Station
Location: San Jacinto, CA
Elevation: 1544 ft
Nearby Weather Stations

Elev 1544 ft 33.80 °N, 116.96 °W | Updated 2 minutes ago

Mostly Cloudy
Mostly Cloudy
68.7 °F
Feels Like 68.7 °F
N
2.2
Wind Variable Wind from South

Today
High -- | Low -- °F
--% Chance of Precip.
Yesterday
High -- | Low -- °F
Precip. -- in
6:48 AM 5:12 PM
Waxing Crescent, 46% visible
Pressure 30.04 in
Visibility 10.0 miles
Clouds Few 16000 ft
Dew Point 45 °F
Humidity 43%
Rainfall 0.00 in
Snow Depth Not available.
UV 4 out of 12
Pollen 6.10 out of 12
Air Quality Not available.
Flu Activity Not available.
METAR KRIV 261858Z AUTO 09013KT 10SM FEW160 21/01 A3005 RMK AO2 SLP170 T02140009

More Conditions Fewer Conditions

Pressure 30.04 in
Visibility 10.0 miles
Clouds Few 16000 ft
Dew Point 45 °F
Humidity 43%
Rainfall 0.00 in
Snow Depth Not available.
UV 4 out of 12
Pollen 6.10 out of 12
Air Quality Not available.
Flu Activity Not available.
METAR KRIV 261858Z AUTO 09013KT 10SM FEW160 21/01 A3005 RMK AO2 SLP170 T02140009

More Conditions Fewer Conditions

10-Day Weather Forecast

Almanac

Astronomy

Jan. 26, 2015 Rise Set
Actual Time
Civil Twilight
Nautical Twilight
Astronomical Twilight
Moon
Length of Visible Light
Length of Day
Tomorrow will be .
, % of the Moon is Illuminated

Today's Extremes

State Highs State Lows

Community

WunderPhotos

Upload Photos

1,790,329 photos uploaded!

WunderBlogs® & News

Nearby

Air Quality

  Air Quality AQ Index Pollutant
Not available.

Snow Depth

Station Depth Elevation

Earthquake Activity

City Distance Mag. Time & Date
Minimum magnitude displayed is 2.5.

Coastal Water Temperatures

Place Temperature

Nearby Weather Stations